sensor_id;sensor_type;location;lat;lon;timestamp;P1;durP1;ratioP1;P2;durP2;ratioP2
32347;SDS011;18821;44.800;10.326;2023-05-23T00:01:55;19.27;;;12.52;;
32347;SDS011;18821;44.800;10.326;2023-05-23T00:04:23;19.02;;;13.65;;
32347;SDS011;18821;44.800;10.326;2023-05-23T00:06:51;18.20;;;13.15;;
32347;SDS011;18821;44.800;10.326;2023-05-23T00:09:17;18.75;;;13.77;;
32347;SDS011;18821;44.800;10.326;2023-05-23T00:11:43;19.20;;;13.43;;
32347;SDS011;18821;44.800;10.326;2023-05-23T00:14:10;18.88;;;13.93;;
32347;SDS011;18821;44.800;10.326;2023-05-23T00:16:38;19.58;;;13.52;;
32347;SDS011;18821;44.800;10.326;2023-05-23T00:19:12;24.15;;;12.93;;
32347;SDS011;18821;44.800;10.326;2023-05-23T00:21:41;18.90;;;12.70;;
32347;SDS011;18821;44.800;10.326;2023-05-23T00:24:12;18.05;;;12.63;;
32347;SDS011;18821;44.800;10.326;2023-05-23T00:26:43;16.98;;;13.25;;
32347;SDS011;18821;44.800;10.326;2023-05-23T00:29:09;15.60;;;12.50;;
32347;SDS011;18821;44.800;10.326;2023-05-23T00:31:44;18.27;;;13.57;;
32347;SDS011;18821;44.800;10.326;2023-05-23T00:34:11;22.17;;;13.52;;
32347;SDS011;18821;44.800;10.326;2023-05-23T00:36:38;18.55;;;12.75;;
32347;SDS011;18821;44.800;10.326;2023-05-23T00:39:06;20.33;;;13.35;;
32347;SDS011;18821;44.800;10.326;2023-05-23T00:41:33;19.85;;;12.50;;
32347;SDS011;18821;44.800;10.326;2023-05-23T00:44:00;16.67;;;11.90;;
32347;SDS011;18821;44.800;10.326;2023-05-23T00:46:28;16.02;;;11.77;;
32347;SDS011;18821;44.800;10.326;2023-05-23T00:48:55;15.80;;;13.00;;
32347;SDS011;18821;44.800;10.326;2023-05-23T00:51:21;19.00;;;12.75;;
32347;SDS011;18821;44.800;10.326;2023-05-23T00:53:47;18.27;;;12.70;;
32347;SDS011;18821;44.800;10.326;2023-05-23T00:56:13;17.80;;;12.88;;
32347;SDS011;18821;44.800;10.326;2023-05-23T00:58:39;16.63;;;12.85;;
32347;SDS011;18821;44.800;10.326;2023-05-23T01:01:06;20.08;;;12.40;;
32347;SDS011;18821;44.800;10.326;2023-05-23T01:03:32;20.20;;;12.88;;
32347;SDS011;18821;44.800;10.326;2023-05-23T01:05:58;19.00;;;14.07;;
32347;SDS011;18821;44.800;10.326;2023-05-23T01:08:24;22.02;;;11.82;;
32347;SDS011;18821;44.800;10.326;2023-05-23T01:10:50;16.15;;;12.18;;
32347;SDS011;18821;44.800;10.326;2023-05-23T01:13:33;18.55;;;12.63;;
32347;SDS011;18821;44.800;10.326;2023-05-23T01:16:10;21.85;;;12.95;;
32347;SDS011;18821;44.800;10.326;2023-05-23T01:19:26;20.25;;;13.75;;
32347;SDS011;18821;44.800;10.326;2023-05-23T01:21:33;20.75;;;13.98;;
32347;SDS011;18821;44.800;10.326;2023-05-23T01:24:24;18.13;;;12.98;;
32347;SDS011;18821;44.800;10.326;2023-05-23T01:29:52;18.63;;;13.20;;
32347;SDS011;18821;44.800;10.326;2023-05-23T01:32:21;17.52;;;12.40;;
32347;SDS011;18821;44.800;10.326;2023-05-23T01:34:51;16.38;;;11.80;;
32347;SDS011;18821;44.800;10.326;2023-05-23T01:37:18;21.10;;;13.32;;
32347;SDS011;18821;44.800;10.326;2023-05-23T01:39:44;19.13;;;12.25;;
32347;SDS011;18821;44.800;10.326;2023-05-23T01:42:11;15.57;;;12.02;;
32347;SDS011;18821;44.800;10.326;2023-05-23T01:44:37;15.48;;;11.63;;
32347;SDS011;18821;44.800;10.326;2023-05-23T01:47:04;16.02;;;12.25;;
32347;SDS011;18821;44.800;10.326;2023-05-23T01:49:32;18.65;;;11.40;;
32347;SDS011;18821;44.800;10.326;2023-05-23T01:52:00;16.27;;;11.95;;
32347;SDS011;18821;44.800;10.326;2023-05-23T01:54:28;16.52;;;12.48;;
32347;SDS011;18821;44.800;10.326;2023-05-23T01:56:57;20.25;;;12.35;;
32347;SDS011;18821;44.800;10.326;2023-05-23T01:59:24;17.08;;;12.82;;
32347;SDS011;18821;44.800;10.326;2023-05-23T02:01:50;19.00;;;13.77;;
32347;SDS011;18821;44.800;10.326;2023-05-23T02:04:17;16.45;;;12.23;;
32347;SDS011;18821;44.800;10.326;2023-05-23T02:06:43;16.55;;;12.48;;
32347;SDS011;18821;44.800;10.326;2023-05-23T02:09:11;15.95;;;12.55;;
32347;SDS011;18821;44.800;10.326;2023-05-23T02:11:38;17.40;;;13.15;;
32347;SDS011;18821;44.800;10.326;2023-05-23T02:14:03;17.83;;;13.05;;
32347;SDS011;18821;44.800;10.326;2023-05-23T02:16:29;16.35;;;12.15;;
32347;SDS011;18821;44.800;10.326;2023-05-23T02:18:58;18.15;;;12.75;;
32347;SDS011;18821;44.800;10.326;2023-05-23T02:21:23;17.55;;;12.65;;
32347;SDS011;18821;44.800;10.326;2023-05-23T02:23:49;19.25;;;12.45;;
32347;SDS011;18821;44.800;10.326;2023-05-23T02:26:16;15.75;;;12.88;;
32347;SDS011;18821;44.800;10.326;2023-05-23T02:28:42;24.15;;;13.70;;
32347;SDS011;18821;44.800;10.326;2023-05-23T02:31:08;15.85;;;12.07;;
32347;SDS011;18821;44.800;10.326;2023-05-23T02:33:35;19.05;;;12.65;;
32347;SDS011;18821;44.800;10.326;2023-05-23T02:36:00;18.42;;;12.82;;
32347;SDS011;18821;44.800;10.326;2023-05-23T02:38:27;22.88;;;13.05;;
32347;SDS011;18821;44.800;10.326;2023-05-23T02:40:55;17.75;;;12.55;;
32347;SDS011;18821;44.800;10.326;2023-05-23T02:43:22;20.15;;;13.15;;
32347;SDS011;18821;44.800;10.326;2023-05-23T02:45:48;18.02;;;12.98;;
32347;SDS011;18821;44.800;10.326;2023-05-23T02:48:14;16.65;;;13.05;;
32347;SDS011;18821;44.800;10.326;2023-05-23T02:50:40;15.65;;;13.30;;
32347;SDS011;18821;44.800;10.326;2023-05-23T02:53:06;17.85;;;13.05;;
32347;SDS011;18821;44.800;10.326;2023-05-23T02:55:32;25.33;;;13.90;;
32347;SDS011;18821;44.800;10.326;2023-05-23T02:57:58;19.63;;;13.27;;
32347;SDS011;18821;44.800;10.326;2023-05-23T03:00:24;19.08;;;12.65;;
32347;SDS011;18821;44.800;10.326;2023-05-23T03:02:53;22.67;;;13.27;;
32347;SDS011;18821;44.800;10.326;2023-05-23T03:05:19;17.63;;;12.20;;
32347;SDS011;18821;44.800;10.326;2023-05-23T03:07:45;17.70;;;12.55;;
32347;SDS011;18821;44.800;10.326;2023-05-23T03:10:12;20.63;;;12.85;;
32347;SDS011;18821;44.800;10.326;2023-05-23T03:12:38;15.65;;;12.68;;
32347;SDS011;18821;44.800;10.326;2023-05-23T03:15:04;20.33;;;13.35;;
32347;SDS011;18821;44.800;10.326;2023-05-23T03:17:32;21.52;;;12.52;;
32347;SDS011;18821;44.800;10.326;2023-05-23T03:19:58;17.10;;;12.75;;
32347;SDS011;18821;44.800;10.326;2023-05-23T03:22:24;17.90;;;12.55;;
32347;SDS011;18821;44.800;10.326;2023-05-23T03:24:50;21.58;;;13.30;;
32347;SDS011;18821;44.800;10.326;2023-05-23T03:27:16;19.92;;;13.65;;
32347;SDS011;18821;44.800;10.326;2023-05-23T03:29:42;21.77;;;13.68;;
32347;SDS011;18821;44.800;10.326;2023-05-23T03:32:09;18.75;;;12.73;;
32347;SDS011;18821;44.800;10.326;2023-05-23T03:34:35;17.63;;;12.93;;
32347;SDS011;18821;44.800;10.326;2023-05-23T03:37:02;25.05;;;12.93;;
32347;SDS011;18821;44.800;10.326;2023-05-23T03:39:28;17.13;;;12.90;;
32347;SDS011;18821;44.800;10.326;2023-05-23T03:41:55;25.02;;;13.30;;
32347;SDS011;18821;44.800;10.326;2023-05-23T03:44:21;22.08;;;13.07;;
32347;SDS011;18821;44.800;10.326;2023-05-23T03:46:47;20.42;;;13.60;;
32347;SDS011;18821;44.800;10.326;2023-05-23T03:49:15;18.33;;;12.80;;
32347;SDS011;18821;44.800;10.326;2023-05-23T03:51:41;20.27;;;13.13;;
32347;SDS011;18821;44.800;10.326;2023-05-23T03:54:08;19.25;;;13.80;;
32347;SDS011;18821;44.800;10.326;2023-05-23T03:56:33;16.83;;;13.75;;
32347;SDS011;18821;44.800;10.326;2023-05-23T03:58:59;22.38;;;13.68;;
32347;SDS011;18821;44.800;10.326;2023-05-23T04:01:26;18.48;;;13.65;;
32347;SDS011;18821;44.800;10.326;2023-05-23T04:03:53;21.08;;;14.23;;
32347;SDS011;18821;44.800;10.326;2023-05-23T04:06:20;21.80;;;12.73;;
32347;SDS011;18821;44.800;10.326;2023-05-23T04:08:47;21.55;;;13.32;;
32347;SDS011;18821;44.800;10.326;2023-05-23T04:11:13;15.52;;;12.10;;
32347;SDS011;18821;44.800;10.326;2023-05-23T04:13:40;16.45;;;12.55;;
32347;SDS011;18821;44.800;10.326;2023-05-23T04:16:07;19.20;;;12.70;;
32347;SDS011;18821;44.800;10.326;2023-05-23T04:18:32;18.38;;;12.90;;
32347;SDS011;18821;44.800;10.326;2023-05-23T04:20:58;16.13;;;12.57;;
32347;SDS011;18821;44.800;10.326;2023-05-23T04:23:24;19.52;;;12.52;;
32347;SDS011;18821;44.800;10.326;2023-05-23T04:25:52;23.35;;;13.30;;
32347;SDS011;18821;44.800;10.326;2023-05-23T04:28:38;23.70;;;13.15;;
32347;SDS011;18821;44.800;10.326;2023-05-23T04:31:05;23.67;;;12.10;;
32347;SDS011;18821;44.800;10.326;2023-05-23T04:33:35;18.80;;;11.88;;
32347;SDS011;18821;44.800;10.326;2023-05-23T04:36:02;22.58;;;13.32;;
32347;SDS011;18821;44.800;10.326;2023-05-23T04:38:28;16.77;;;12.85;;
32347;SDS011;18821;44.800;10.326;2023-05-23T04:40:59;16.60;;;12.70;;
32347;SDS011;18821;44.800;10.326;2023-05-23T04:43:50;17.65;;;12.57;;
32347;SDS011;18821;44.800;10.326;2023-05-23T04:46:26;21.70;;;12.32;;
32347;SDS011;18821;44.800;10.326;2023-05-23T04:49:10;18.38;;;11.98;;
32347;SDS011;18821;44.800;10.326;2023-05-23T04:51:37;15.65;;;11.50;;
32347;SDS011;18821;44.800;10.326;2023-05-23T04:54:25;21.92;;;11.48;;
32347;SDS011;18821;44.800;10.326;2023-05-23T04:56:52;20.17;;;11.98;;
32347;SDS011;18821;44.800;10.326;2023-05-23T04:59:19;16.88;;;11.88;;
32347;SDS011;18821;44.800;10.326;2023-05-23T05:01:45;21.45;;;12.85;;
32347;SDS011;18821;44.800;10.326;2023-05-23T05:04:12;20.58;;;12.93;;
32347;SDS011;18821;44.800;10.326;2023-05-23T05:06:39;17.17;;;11.88;;
32347;SDS011;18821;44.800;10.326;2023-05-23T05:09:07;20.70;;;12.82;;
32347;SDS011;18821;44.800;10.326;2023-05-23T05:11:34;16.90;;;11.48;;
32347;SDS011;18821;44.800;10.326;2023-05-23T05:14:01;14.18;;;11.88;;
32347;SDS011;18821;44.800;10.326;2023-05-23T05:16:27;15.45;;;12.00;;
32347;SDS011;18821;44.800;10.326;2023-05-23T05:18:53;15.10;;;11.68;;
32347;SDS011;18821;44.800;10.326;2023-05-23T05:21:20;14.38;;;11.95;;
32347;SDS011;18821;44.800;10.326;2023-05-23T05:23:46;22.17;;;13.15;;
32347;SDS011;18821;44.800;10.326;2023-05-23T05:26:15;14.20;;;11.05;;
32347;SDS011;18821;44.800;10.326;2023-05-23T05:28:41;15.93;;;12.23;;
32347;SDS011;18821;44.800;10.326;2023-05-23T05:31:07;25.13;;;12.27;;
32347;SDS011;18821;44.800;10.326;2023-05-23T05:33:35;20.25;;;10.95;;
32347;SDS011;18821;44.800;10.326;2023-05-23T05:36:12;19.33;;;11.07;;
32347;SDS011;18821;44.800;10.326;2023-05-23T05:38:39;16.00;;;10.85;;
32347;SDS011;18821;44.800;10.326;2023-05-23T05:41:05;13.48;;;10.40;;
32347;SDS011;18821;44.800;10.326;2023-05-23T05:43:37;18.17;;;9.55;;
32347;SDS011;18821;44.800;10.326;2023-05-23T05:46:03;16.52;;;10.05;;
32347;SDS011;18821;44.800;10.326;2023-05-23T05:48:30;18.15;;;10.07;;
32347;SDS011;18821;44.800;10.326;2023-05-23T05:51:00;14.50;;;9.23;;
32347;SDS011;18821;44.800;10.326;2023-05-23T05:53:31;20.73;;;9.70;;
32347;SDS011;18821;44.800;10.326;2023-05-23T05:55:58;17.08;;;9.63;;
32347;SDS011;18821;44.800;10.326;2023-05-23T05:58:26;16.73;;;8.60;;
32347;SDS011;18821;44.800;10.326;2023-05-23T06:01:02;22.13;;;8.95;;
32347;SDS011;18821;44.800;10.326;2023-05-23T06:03:41;15.15;;;8.73;;
32347;SDS011;18821;44.800;10.326;2023-05-23T06:06:06;23.38;;;10.85;;
32347;SDS011;18821;44.800;10.326;2023-05-23T06:08:33;14.10;;;9.07;;
32347;SDS011;18821;44.800;10.326;2023-05-23T06:10:59;11.82;;;8.23;;
32347;SDS011;18821;44.800;10.326;2023-05-23T06:13:25;13.13;;;8.02;;
32347;SDS011;18821;44.800;10.326;2023-05-23T06:15:52;11.75;;;8.30;;
32347;SDS011;18821;44.800;10.326;2023-05-23T06:18:18;12.75;;;8.70;;
32347;SDS011;18821;44.800;10.326;2023-05-23T06:20:44;13.02;;;8.00;;
32347;SDS011;18821;44.800;10.326;2023-05-23T06:23:14;13.15;;;8.85;;
32347;SDS011;18821;44.800;10.326;2023-05-23T06:25:40;13.70;;;8.20;;
32347;SDS011;18821;44.800;10.326;2023-05-23T06:28:06;23.70;;;10.05;;
32347;SDS011;18821;44.800;10.326;2023-05-23T06:30:32;11.95;;;8.98;;
32347;SDS011;18821;44.800;10.326;2023-05-23T06:33:00;22.50;;;9.30;;
32347;SDS011;18821;44.800;10.326;2023-05-23T06:35:26;13.90;;;8.85;;
32347;SDS011;18821;44.800;10.326;2023-05-23T06:37:52;14.80;;;8.95;;
32347;SDS011;18821;44.800;10.326;2023-05-23T06:40:18;13.00;;;9.20;;
32347;SDS011;18821;44.800;10.326;2023-05-23T06:42:45;15.05;;;9.60;;
32347;SDS011;18821;44.800;10.326;2023-05-23T06:45:37;13.00;;;8.90;;
32347;SDS011;18821;44.800;10.326;2023-05-23T06:48:03;21.42;;;9.52;;
32347;SDS011;18821;44.800;10.326;2023-05-23T06:50:34;18.75;;;9.90;;
32347;SDS011;18821;44.800;10.326;2023-05-23T06:53:01;19.27;;;9.95;;
32347;SDS011;18821;44.800;10.326;2023-05-23T06:55:27;15.20;;;10.15;;
32347;SDS011;18821;44.800;10.326;2023-05-23T06:57:54;19.60;;;10.90;;
32347;SDS011;18821;44.800;10.326;2023-05-23T07:00:21;15.07;;;10.45;;
32347;SDS011;18821;44.800;10.326;2023-05-23T07:03:10;16.75;;;10.30;;
32347;SDS011;18821;44.800;10.326;2023-05-23T07:05:37;14.18;;;9.40;;
32347;SDS011;18821;44.800;10.326;2023-05-23T07:08:03;15.40;;;10.45;;
32347;SDS011;18821;44.800;10.326;2023-05-23T07:10:29;17.00;;;9.90;;
32347;SDS011;18821;44.800;10.326;2023-05-23T07:13:03;14.77;;;9.70;;
32347;SDS011;18821;44.800;10.326;2023-05-23T07:15:30;18.52;;;9.90;;
32347;SDS011;18821;44.800;10.326;2023-05-23T07:18:11;16.25;;;9.68;;
32347;SDS011;18821;44.800;10.326;2023-05-23T07:20:37;69.45;;;13.88;;
32347;SDS011;18821;44.800;10.326;2023-05-23T07:23:14;26.70;;;11.25;;
32347;SDS011;18821;44.800;10.326;2023-05-23T07:25:40;72.85;;;13.98;;
32347;SDS011;18821;44.800;10.326;2023-05-23T07:28:12;80.68;;;14.80;;
32347;SDS011;18821;44.800;10.326;2023-05-23T07:30:38;22.42;;;10.05;;
32347;SDS011;18821;44.800;10.326;2023-05-23T07:33:04;12.93;;;8.98;;
32347;SDS011;18821;44.800;10.326;2023-05-23T07:35:32;17.08;;;9.40;;
32347;SDS011;18821;44.800;10.326;2023-05-23T07:37:59;23.98;;;10.05;;
32347;SDS011;18821;44.800;10.326;2023-05-23T07:40:25;24.92;;;11.02;;
32347;SDS011;18821;44.800;10.326;2023-05-23T07:42:51;16.42;;;9.93;;
32347;SDS011;18821;44.800;10.326;2023-05-23T07:45:21;13.55;;;9.93;;
32347;SDS011;18821;44.800;10.326;2023-05-23T07:47:47;12.98;;;9.55;;
32347;SDS011;18821;44.800;10.326;2023-05-23T07:50:14;14.70;;;9.88;;
32347;SDS011;18821;44.800;10.326;2023-05-23T07:52:41;21.90;;;12.50;;
32347;SDS011;18821;44.800;10.326;2023-05-23T07:55:10;23.92;;;11.98;;
32347;SDS011;18821;44.800;10.326;2023-05-23T07:57:36;19.60;;;10.50;;
32347;SDS011;18821;44.800;10.326;2023-05-23T08:00:03;14.50;;;11.10;;
32347;SDS011;18821;44.800;10.326;2023-05-23T08:02:40;16.60;;;11.85;;
32347;SDS011;18821;44.800;10.326;2023-05-23T08:05:10;17.48;;;12.25;;
32347;SDS011;18821;44.800;10.326;2023-05-23T08:07:36;21.25;;;12.80;;
32347;SDS011;18821;44.800;10.326;2023-05-23T08:10:03;24.05;;;13.05;;
32347;SDS011;18821;44.800;10.326;2023-05-23T08:12:30;18.13;;;12.77;;
32347;SDS011;18821;44.800;10.326;2023-05-23T08:17:38;17.92;;;12.95;;
32347;SDS011;18821;44.800;10.326;2023-05-23T08:20:04;21.13;;;14.05;;
32347;SDS011;18821;44.800;10.326;2023-05-23T08:22:31;19.77;;;14.50;;
32347;SDS011;18821;44.800;10.326;2023-05-23T08:24:57;19.88;;;13.85;;
32347;SDS011;18821;44.800;10.326;2023-05-23T08:27:28;23.13;;;13.95;;
32347;SDS011;18821;44.800;10.326;2023-05-23T08:29:58;21.05;;;15.00;;
32347;SDS011;18821;44.800;10.326;2023-05-23T08:32:24;22.27;;;14.55;;
32347;SDS011;18821;44.800;10.326;2023-05-23T08:34:50;17.85;;;14.48;;
32347;SDS011;18821;44.800;10.326;2023-05-23T08:37:17;16.48;;;13.13;;
32347;SDS011;18821;44.800;10.326;2023-05-23T08:39:43;24.33;;;14.10;;
32347;SDS011;18821;44.800;10.326;2023-05-23T08:42:32;35.17;;;17.83;;
32347;SDS011;18821;44.800;10.326;2023-05-23T08:44:58;34.97;;;15.75;;
32347;SDS011;18821;44.800;10.326;2023-05-23T08:47:24;24.30;;;14.18;;
32347;SDS011;18821;44.800;10.326;2023-05-23T08:49:58;20.63;;;13.88;;
32347;SDS011;18821;44.800;10.326;2023-05-23T08:52:28;19.58;;;13.68;;
32347;SDS011;18821;44.800;10.326;2023-05-23T08:54:59;17.00;;;12.88;;
32347;SDS011;18821;44.800;10.326;2023-05-23T08:57:27;18.98;;;13.07;;
32347;SDS011;18821;44.800;10.326;2023-05-23T08:59:59;20.33;;;12.95;;
32347;SDS011;18821;44.800;10.326;2023-05-23T09:02:28;23.10;;;12.57;;
32347;SDS011;18821;44.800;10.326;2023-05-23T09:05:06;20.80;;;11.73;;
32347;SDS011;18821;44.800;10.326;2023-05-23T09:07:34;18.58;;;12.07;;
32347;SDS011;18821;44.800;10.326;2023-05-23T09:10:10;18.60;;;11.57;;
32347;SDS011;18821;44.800;10.326;2023-05-23T09:12:38;15.18;;;12.18;;
32347;SDS011;18821;44.800;10.326;2023-05-23T09:15:05;34.80;;;13.35;;
32347;SDS011;18821;44.800;10.326;2023-05-23T09:17:35;23.52;;;13.73;;
32347;SDS011;18821;44.800;10.326;2023-05-23T09:20:14;39.88;;;13.27;;
32347;SDS011;18821;44.800;10.326;2023-05-23T09:22:47;21.30;;;12.45;;
32347;SDS011;18821;44.800;10.326;2023-05-23T09:25:16;20.15;;;11.00;;
32347;SDS011;18821;44.800;10.326;2023-05-23T09:27:44;18.63;;;11.77;;
32347;SDS011;18821;44.800;10.326;2023-05-23T09:30:10;16.63;;;13.52;;
32347;SDS011;18821;44.800;10.326;2023-05-23T09:32:37;15.82;;;12.02;;
32347;SDS011;18821;44.800;10.326;2023-05-23T09:35:04;17.33;;;12.85;;
32347;SDS011;18821;44.800;10.326;2023-05-23T09:40:07;31.60;;;12.20;;
32347;SDS011;18821;44.800;10.326;2023-05-23T09:42:50;24.50;;;14.35;;
32347;SDS011;18821;44.800;10.326;2023-05-23T09:45:16;20.05;;;14.10;;
32347;SDS011;18821;44.800;10.326;2023-05-23T09:47:48;26.75;;;14.43;;
32347;SDS011;18821;44.800;10.326;2023-05-23T09:50:17;21.52;;;15.63;;
32347;SDS011;18821;44.800;10.326;2023-05-23T09:52:44;17.23;;;14.60;;
32347;SDS011;18821;44.800;10.326;2023-05-23T09:55:11;20.83;;;13.93;;
32347;SDS011;18821;44.800;10.326;2023-05-23T09:57:39;20.48;;;13.73;;
32347;SDS011;18821;44.800;10.326;2023-05-23T10:00:11;20.00;;;13.57;;
32347;SDS011;18821;44.800;10.326;2023-05-23T10:05:59;22.17;;;15.13;;
32347;SDS011;18821;44.800;10.326;2023-05-23T10:08:31;18.13;;;13.32;;
32347;SDS011;18821;44.800;10.326;2023-05-23T10:13:36;16.48;;;11.73;;
32347;SDS011;18821;44.800;10.326;2023-05-23T10:16:07;19.08;;;12.85;;
32347;SDS011;18821;44.800;10.326;2023-05-23T10:18:56;20.55;;;14.90;;
32347;SDS011;18821;44.800;10.326;2023-05-23T10:21:32;17.52;;;13.13;;
32347;SDS011;18821;44.800;10.326;2023-05-23T10:24:03;20.55;;;13.32;;
32347;SDS011;18821;44.800;10.326;2023-05-23T10:26:29;18.00;;;13.25;;
32347;SDS011;18821;44.800;10.326;2023-05-23T10:28:56;18.90;;;13.77;;
32347;SDS011;18821;44.800;10.326;2023-05-23T10:31:24;20.95;;;13.95;;
32347;SDS011;18821;44.800;10.326;2023-05-23T10:34:39;15.20;;;12.43;;
32347;SDS011;18821;44.800;10.326;2023-05-23T10:42:26;19.48;;;14.32;;
32347;SDS011;18821;44.800;10.326;2023-05-23T10:45:16;17.45;;;13.18;;
32347;SDS011;18821;44.800;10.326;2023-05-23T10:47:43;27.70;;;15.32;;
32347;SDS011;18821;44.800;10.326;2023-05-23T10:50:14;18.13;;;12.10;;
32347;SDS011;18821;44.800;10.326;2023-05-23T10:52:58;20.95;;;11.38;;
32347;SDS011;18821;44.800;10.326;2023-05-23T10:55:30;17.30;;;12.18;;
32347;SDS011;18821;44.800;10.326;2023-05-23T11:00:49;18.33;;;11.65;;
32347;SDS011;18821;44.800;10.326;2023-05-23T11:03:16;16.98;;;11.77;;
32347;SDS011;18821;44.800;10.326;2023-05-23T11:05:46;18.50;;;12.52;;
32347;SDS011;18821;44.800;10.326;2023-05-23T11:08:18;17.52;;;12.88;;
32347;SDS011;18821;44.800;10.326;2023-05-23T11:10:52;16.30;;;13.32;;
32347;SDS011;18821;44.800;10.326;2023-05-23T11:13:19;26.50;;;12.52;;
32347;SDS011;18821;44.800;10.326;2023-05-23T11:15:46;25.50;;;11.60;;
32347;SDS011;18821;44.800;10.326;2023-05-23T11:18:22;45.13;;;14.90;;
32347;SDS011;18821;44.800;10.326;2023-05-23T11:20:51;30.38;;;10.77;;
32347;SDS011;18821;44.800;10.326;2023-05-23T11:23:18;13.10;;;9.50;;
32347;SDS011;18821;44.800;10.326;2023-05-23T11:25:48;12.77;;;9.00;;
32347;SDS011;18821;44.800;10.326;2023-05-23T11:28:16;13.55;;;11.00;;
32347;SDS011;18821;44.800;10.326;2023-05-23T11:30:42;12.75;;;11.23;;
32347;SDS011;18821;44.800;10.326;2023-05-23T11:33:11;12.75;;;10.02;;
32347;SDS011;18821;44.800;10.326;2023-05-23T11:35:39;17.83;;;10.75;;
32347;SDS011;18821;44.800;10.326;2023-05-23T11:38:09;17.42;;;10.45;;
32347;SDS011;18821;44.800;10.326;2023-05-23T11:43:03;14.43;;;10.40;;
32347;SDS011;18821;44.800;10.326;2023-05-23T11:45:31;14.35;;;10.45;;
32347;SDS011;18821;44.800;10.326;2023-05-23T11:47:58;15.57;;;7.95;;
32347;SDS011;18821;44.800;10.326;2023-05-23T11:50:30;11.40;;;8.50;;
32347;SDS011;18821;44.800;10.326;2023-05-23T11:52:56;15.63;;;8.00;;
32347;SDS011;18821;44.800;10.326;2023-05-23T11:55:22;10.40;;;7.55;;
32347;SDS011;18821;44.800;10.326;2023-05-23T11:57:48;12.00;;;8.30;;
32347;SDS011;18821;44.800;10.326;2023-05-23T12:00:16;14.18;;;8.13;;
32347;SDS011;18821;44.800;10.326;2023-05-23T12:02:43;10.63;;;7.22;;
32347;SDS011;18821;44.800;10.326;2023-05-23T12:05:10;9.85;;;6.97;;
32347;SDS011;18821;44.800;10.326;2023-05-23T12:07:40;12.15;;;7.72;;
32347;SDS011;18821;44.800;10.326;2023-05-23T12:10:11;13.65;;;7.35;;
32347;SDS011;18821;44.800;10.326;2023-05-23T12:12:39;14.30;;;10.73;;
32347;SDS011;18821;44.800;10.326;2023-05-23T12:15:07;11.95;;;7.60;;
32347;SDS011;18821;44.800;10.326;2023-05-23T12:17:37;11.38;;;6.60;;
32347;SDS011;18821;44.800;10.326;2023-05-23T12:20:04;15.45;;;8.70;;
32347;SDS011;18821;44.800;10.326;2023-05-23T12:22:31;16.02;;;7.32;;
32347;SDS011;18821;44.800;10.326;2023-05-23T12:24:57;13.32;;;6.97;;
32347;SDS011;18821;44.800;10.326;2023-05-23T12:27:26;9.80;;;6.68;;
32347;SDS011;18821;44.800;10.326;2023-05-23T12:30:04;8.95;;;6.40;;
32347;SDS011;18821;44.800;10.326;2023-05-23T12:32:32;12.60;;;6.47;;
32347;SDS011;18821;44.800;10.326;2023-05-23T12:34:58;9.32;;;5.65;;
32347;SDS011;18821;44.800;10.326;2023-05-23T12:37:24;8.10;;;6.35;;
32347;SDS011;18821;44.800;10.326;2023-05-23T12:39:50;9.98;;;5.80;;
32347;SDS011;18821;44.800;10.326;2023-05-23T12:42:16;8.07;;;6.43;;
32347;SDS011;18821;44.800;10.326;2023-05-23T12:44:42;8.32;;;6.35;;
32347;SDS011;18821;44.800;10.326;2023-05-23T12:47:08;9.82;;;5.93;;
32347;SDS011;18821;44.800;10.326;2023-05-23T12:49:34;8.48;;;5.70;;
32347;SDS011;18821;44.800;10.326;2023-05-23T12:52:02;10.20;;;6.13;;
32347;SDS011;18821;44.800;10.326;2023-05-23T12:54:28;8.02;;;5.30;;
32347;SDS011;18821;44.800;10.326;2023-05-23T12:56:54;10.57;;;6.30;;
32347;SDS011;18821;44.800;10.326;2023-05-23T12:59:20;9.43;;;5.05;;
32347;SDS011;18821;44.800;10.326;2023-05-23T13:01:46;7.22;;;5.70;;
32347;SDS011;18821;44.800;10.326;2023-05-23T13:04:11;8.65;;;5.63;;
32347;SDS011;18821;44.800;10.326;2023-05-23T13:06:37;9.55;;;5.55;;
32347;SDS011;18821;44.800;10.326;2023-05-23T13:09:03;10.98;;;5.88;;
32347;SDS011;18821;44.800;10.326;2023-05-23T13:11:29;7.13;;;5.50;;
32347;SDS011;18821;44.800;10.326;2023-05-23T13:13:55;9.20;;;5.43;;
32347;SDS011;18821;44.800;10.326;2023-05-23T13:16:22;9.18;;;5.57;;
32347;SDS011;18821;44.800;10.326;2023-05-23T13:18:48;6.65;;;5.38;;
32347;SDS011;18821;44.800;10.326;2023-05-23T13:21:14;12.63;;;5.55;;
32347;SDS011;18821;44.800;10.326;2023-05-23T13:23:40;7.82;;;5.25;;
32347;SDS011;18821;44.800;10.326;2023-05-23T13:26:06;9.95;;;5.43;;
32347;SDS011;18821;44.800;10.326;2023-05-23T13:28:34;8.55;;;5.68;;
32347;SDS011;18821;44.800;10.326;2023-05-23T13:31:00;12.52;;;5.90;;
32347;SDS011;18821;44.800;10.326;2023-05-23T13:33:27;10.32;;;6.07;;
32347;SDS011;18821;44.800;10.326;2023-05-23T13:35:53;7.45;;;5.18;;
32347;SDS011;18821;44.800;10.326;2023-05-23T13:38:19;7.65;;;5.88;;
32347;SDS011;18821;44.800;10.326;2023-05-23T13:40:47;8.25;;;6.53;;
32347;SDS011;18821;44.800;10.326;2023-05-23T13:43:15;8.82;;;6.70;;
32347;SDS011;18821;44.800;10.326;2023-05-23T13:45:41;8.35;;;5.65;;
32347;SDS011;18821;44.800;10.326;2023-05-23T13:48:07;13.55;;;5.72;;
32347;SDS011;18821;44.800;10.326;2023-05-23T13:50:33;11.75;;;5.72;;
32347;SDS011;18821;44.800;10.326;2023-05-23T13:52:59;7.57;;;5.57;;
32347;SDS011;18821;44.800;10.326;2023-05-23T13:55:25;9.10;;;6.10;;
32347;SDS011;18821;44.800;10.326;2023-05-23T13:57:51;9.88;;;6.15;;
32347;SDS011;18821;44.800;10.326;2023-05-23T14:00:17;8.90;;;6.03;;
32347;SDS011;18821;44.800;10.326;2023-05-23T14:02:43;6.40;;;5.43;;
32347;SDS011;18821;44.800;10.326;2023-05-23T14:05:09;8.55;;;5.63;;
32347;SDS011;18821;44.800;10.326;2023-05-23T14:07:35;13.13;;;6.32;;
32347;SDS011;18821;44.800;10.326;2023-05-23T14:10:02;8.23;;;5.60;;
32347;SDS011;18821;44.800;10.326;2023-05-23T14:12:29;10.10;;;5.68;;
32347;SDS011;18821;44.800;10.326;2023-05-23T14:14:55;11.02;;;6.55;;
32347;SDS011;18821;44.800;10.326;2023-05-23T14:17:21;7.40;;;5.75;;
32347;SDS011;18821;44.800;10.326;2023-05-23T14:19:47;9.45;;;6.70;;
32347;SDS011;18821;44.800;10.326;2023-05-23T14:22:13;11.15;;;6.05;;
32347;SDS011;18821;44.800;10.326;2023-05-23T14:24:39;9.77;;;6.03;;
32347;SDS011;18821;44.800;10.326;2023-05-23T14:27:05;10.00;;;5.97;;
32347;SDS011;18821;44.800;10.326;2023-05-23T14:29:31;8.75;;;6.25;;
32347;SDS011;18821;44.800;10.326;2023-05-23T14:31:57;10.15;;;6.15;;
32347;SDS011;18821;44.800;10.326;2023-05-23T14:34:25;8.70;;;5.95;;
32347;SDS011;18821;44.800;10.326;2023-05-23T14:36:51;10.45;;;6.45;;
32347;SDS011;18821;44.800;10.326;2023-05-23T14:39:16;8.90;;;5.80;;
32347;SDS011;18821;44.800;10.326;2023-05-23T14:41:42;10.35;;;5.50;;
32347;SDS011;18821;44.800;10.326;2023-05-23T14:44:08;7.43;;;5.40;;
32347;SDS011;18821;44.800;10.326;2023-05-23T14:46:34;9.70;;;5.80;;